sensor_id;sensor_type;location;lat;lon;timestamp;P1;durP1;ratioP1;P2;durP2;ratioP2
38089;SDS011;23904;52.322;10.232;2022-10-26T00:01:01;11.43;;;7.07;;
38089;SDS011;23904;52.322;10.232;2022-10-26T00:03:39;11.23;;;6.47;;
38089;SDS011;23904;52.322;10.232;2022-10-26T00:06:24;9.80;;;7.22;;
38089;SDS011;23904;52.322;10.232;2022-10-26T00:08:53;14.43;;;7.82;;
38089;SDS011;23904;52.322;10.232;2022-10-26T00:11:21;14.35;;;7.75;;
38089;SDS011;23904;52.322;10.232;2022-10-26T00:13:47;10.70;;;7.22;;
38089;SDS011;23904;52.322;10.232;2022-10-26T00:16:22;15.82;;;7.20;;
38089;SDS011;23904;52.322;10.232;2022-10-26T00:18:51;9.70;;;7.13;;
38089;SDS011;23904;52.322;10.232;2022-10-26T00:21:17;15.68;;;7.35;;
38089;SDS011;23904;52.322;10.232;2022-10-26T00:23:43;13.63;;;6.80;;
38089;SDS011;23904;52.322;10.232;2022-10-26T00:26:09;16.90;;;8.00;;
38089;SDS011;23904;52.322;10.232;2022-10-26T00:28:36;12.00;;;7.15;;
38089;SDS011;23904;52.322;10.232;2022-10-26T00:31:02;15.90;;;7.40;;
38089;SDS011;23904;52.322;10.232;2022-10-26T00:33:36;14.15;;;7.20;;
38089;SDS011;23904;52.322;10.232;2022-10-26T00:36:01;9.60;;;5.90;;
38089;SDS011;23904;52.322;10.232;2022-10-26T00:38:28;11.88;;;6.78;;
38089;SDS011;23904;52.322;10.232;2022-10-26T00:40:54;16.75;;;7.07;;
38089;SDS011;23904;52.322;10.232;2022-10-26T00:45:45;12.65;;;7.10;;
38089;SDS011;23904;52.322;10.232;2022-10-26T00:48:17;12.82;;;7.20;;
38089;SDS011;23904;52.322;10.232;2022-10-26T00:50:49;10.52;;;7.10;;
38089;SDS011;23904;52.322;10.232;2022-10-26T00:53:17;12.98;;;7.72;;
38089;SDS011;23904;52.322;10.232;2022-10-26T00:55:44;13.98;;;7.35;;
38089;SDS011;23904;52.322;10.232;2022-10-26T00:58:13;11.95;;;6.80;;
38089;SDS011;23904;52.322;10.232;2022-10-26T01:00:39;16.77;;;8.70;;
38089;SDS011;23904;52.322;10.232;2022-10-26T01:03:07;16.50;;;7.63;;
38089;SDS011;23904;52.322;10.232;2022-10-26T01:05:35;15.18;;;7.32;;
38089;SDS011;23904;52.322;10.232;2022-10-26T01:08:06;12.55;;;7.53;;
38089;SDS011;23904;52.322;10.232;2022-10-26T01:10:33;15.68;;;7.78;;
38089;SDS011;23904;52.322;10.232;2022-10-26T01:13:00;13.35;;;7.03;;
38089;SDS011;23904;52.322;10.232;2022-10-26T01:15:29;13.95;;;7.65;;
38089;SDS011;23904;52.322;10.232;2022-10-26T01:18:20;13.70;;;6.90;;
38089;SDS011;23904;52.322;10.232;2022-10-26T01:21:11;12.38;;;6.95;;
38089;SDS011;23904;52.322;10.232;2022-10-26T01:38:40;19.13;;;8.63;;
38089;SDS011;23904;52.322;10.232;2022-10-26T01:41:35;16.30;;;8.80;;
38089;SDS011;23904;52.322;10.232;2022-10-26T01:44:04;23.25;;;8.88;;
38089;SDS011;23904;52.322;10.232;2022-10-26T01:46:37;12.05;;;7.10;;
38089;SDS011;23904;52.322;10.232;2022-10-26T01:49:09;20.13;;;7.60;;
38089;SDS011;23904;52.322;10.232;2022-10-26T01:51:41;16.30;;;7.85;;
38089;SDS011;23904;52.322;10.232;2022-10-26T01:54:09;11.75;;;6.88;;
38089;SDS011;23904;52.322;10.232;2022-10-26T01:56:36;14.57;;;6.88;;
38089;SDS011;23904;52.322;10.232;2022-10-26T02:13:48;12.43;;;6.65;;
38089;SDS011;23904;52.322;10.232;2022-10-26T02:16:23;27.52;;;9.57;;
38089;SDS011;23904;52.322;10.232;2022-10-26T02:19:09;17.60;;;7.32;;
38089;SDS011;23904;52.322;10.232;2022-10-26T02:22:23;20.25;;;7.03;;
38089;SDS011;23904;52.322;10.232;2022-10-26T02:24:54;23.15;;;10.57;;
38089;SDS011;23904;52.322;10.232;2022-10-26T02:27:25;25.10;;;9.43;;
38089;SDS011;23904;52.322;10.232;2022-10-26T02:29:55;22.05;;;10.30;;
38089;SDS011;23904;52.322;10.232;2022-10-26T02:32:24;27.08;;;11.02;;
38089;SDS011;23904;52.322;10.232;2022-10-26T02:34:55;19.33;;;9.00;;
38089;SDS011;23904;52.322;10.232;2022-10-26T02:37:23;22.80;;;9.02;;
38089;SDS011;23904;52.322;10.232;2022-10-26T02:39:51;27.98;;;10.80;;
38089;SDS011;23904;52.322;10.232;2022-10-26T02:42:19;24.45;;;10.50;;
38089;SDS011;23904;52.322;10.232;2022-10-26T02:44:49;27.77;;;10.82;;
38089;SDS011;23904;52.322;10.232;2022-10-26T02:47:18;25.15;;;10.20;;
38089;SDS011;23904;52.322;10.232;2022-10-26T02:49:45;28.67;;;11.18;;
38089;SDS011;23904;52.322;10.232;2022-10-26T02:55:19;35.75;;;14.73;;
38089;SDS011;23904;52.322;10.232;2022-10-26T02:57:56;21.60;;;10.32;;
38089;SDS011;23904;52.322;10.232;2022-10-26T03:00:26;24.77;;;10.43;;
38089;SDS011;23904;52.322;10.232;2022-10-26T03:02:54;22.33;;;10.55;;
38089;SDS011;23904;52.322;10.232;2022-10-26T03:05:26;34.97;;;11.35;;
38089;SDS011;23904;52.322;10.232;2022-10-26T03:07:54;20.98;;;9.77;;
38089;SDS011;23904;52.322;10.232;2022-10-26T03:10:20;27.23;;;10.25;;
38089;SDS011;23904;52.322;10.232;2022-10-26T03:12:46;25.80;;;10.00;;
38089;SDS011;23904;52.322;10.232;2022-10-26T03:15:13;26.98;;;11.35;;
38089;SDS011;23904;52.322;10.232;2022-10-26T03:17:39;23.10;;;10.80;;
38089;SDS011;23904;52.322;10.232;2022-10-26T03:20:05;22.08;;;9.65;;
38089;SDS011;23904;52.322;10.232;2022-10-26T03:22:32;23.35;;;9.75;;
38089;SDS011;23904;52.322;10.232;2022-10-26T03:24:57;21.85;;;9.73;;
38089;SDS011;23904;52.322;10.232;2022-10-26T03:27:23;34.30;;;11.32;;
38089;SDS011;23904;52.322;10.232;2022-10-26T03:29:50;21.17;;;9.68;;
38089;SDS011;23904;52.322;10.232;2022-10-26T03:32:16;18.90;;;8.75;;
38089;SDS011;23904;52.322;10.232;2022-10-26T03:34:42;19.90;;;8.75;;
38089;SDS011;23904;52.322;10.232;2022-10-26T03:37:08;23.00;;;9.07;;
38089;SDS011;23904;52.322;10.232;2022-10-26T03:39:33;18.67;;;9.18;;
38089;SDS011;23904;52.322;10.232;2022-10-26T03:41:59;21.17;;;9.15;;
38089;SDS011;23904;52.322;10.232;2022-10-26T03:44:25;23.27;;;10.45;;
38089;SDS011;23904;52.322;10.232;2022-10-26T03:46:50;20.90;;;9.43;;
38089;SDS011;23904;52.322;10.232;2022-10-26T03:49:16;20.40;;;8.25;;
38089;SDS011;23904;52.322;10.232;2022-10-26T03:51:41;17.02;;;8.88;;
38089;SDS011;23904;52.322;10.232;2022-10-26T03:54:07;21.73;;;10.32;;
38089;SDS011;23904;52.322;10.232;2022-10-26T03:56:33;23.92;;;10.85;;
38089;SDS011;23904;52.322;10.232;2022-10-26T03:58:58;18.90;;;9.45;;
38089;SDS011;23904;52.322;10.232;2022-10-26T04:01:24;27.05;;;12.50;;
38089;SDS011;23904;52.322;10.232;2022-10-26T04:03:50;33.45;;;13.52;;
38089;SDS011;23904;52.322;10.232;2022-10-26T04:06:15;34.20;;;13.82;;
38089;SDS011;23904;52.322;10.232;2022-10-26T04:08:41;27.40;;;12.13;;
38089;SDS011;23904;52.322;10.232;2022-10-26T04:11:06;18.90;;;9.40;;
38089;SDS011;23904;52.322;10.232;2022-10-26T04:13:32;19.05;;;8.00;;
38089;SDS011;23904;52.322;10.232;2022-10-26T04:15:58;20.85;;;8.20;;
38089;SDS011;23904;52.322;10.232;2022-10-26T04:18:24;26.85;;;13.32;;
38089;SDS011;23904;52.322;10.232;2022-10-26T04:20:49;36.45;;;16.20;;
38089;SDS011;23904;52.322;10.232;2022-10-26T04:23:16;61.97;;;29.90;;
38089;SDS011;23904;52.322;10.232;2022-10-26T04:25:43;44.28;;;20.15;;
38089;SDS011;23904;52.322;10.232;2022-10-26T04:28:10;24.58;;;12.05;;
38089;SDS011;23904;52.322;10.232;2022-10-26T04:30:37;51.42;;;11.68;;
38089;SDS011;23904;52.322;10.232;2022-10-26T04:33:04;18.05;;;8.88;;
38089;SDS011;23904;52.322;10.232;2022-10-26T04:35:31;28.70;;;11.48;;
38089;SDS011;23904;52.322;10.232;2022-10-26T04:38:00;22.77;;;12.15;;
38089;SDS011;23904;52.322;10.232;2022-10-26T04:40:28;22.90;;;9.90;;
38089;SDS011;23904;52.322;10.232;2022-10-26T04:42:56;40.67;;;15.98;;
38089;SDS011;23904;52.322;10.232;2022-10-26T04:45:22;24.27;;;11.18;;
38089;SDS011;23904;52.322;10.232;2022-10-26T04:47:57;50.63;;;19.25;;
38089;SDS011;23904;52.322;10.232;2022-10-26T04:50:31;45.40;;;17.73;;
38089;SDS011;23904;52.322;10.232;2022-10-26T04:52:58;40.08;;;15.18;;
38089;SDS011;23904;52.322;10.232;2022-10-26T04:55:23;46.45;;;17.08;;
38089;SDS011;23904;52.322;10.232;2022-10-26T04:57:49;29.35;;;14.82;;
38089;SDS011;23904;52.322;10.232;2022-10-26T05:00:15;43.25;;;20.50;;
38089;SDS011;23904;52.322;10.232;2022-10-26T05:02:40;29.90;;;15.20;;
38089;SDS011;23904;52.322;10.232;2022-10-26T05:05:06;29.27;;;14.90;;
38089;SDS011;23904;52.322;10.232;2022-10-26T05:07:32;38.08;;;17.92;;
38089;SDS011;23904;52.322;10.232;2022-10-26T05:09:57;26.33;;;10.75;;
38089;SDS011;23904;52.322;10.232;2022-10-26T05:12:23;24.63;;;11.48;;
38089;SDS011;23904;52.322;10.232;2022-10-26T05:14:49;28.00;;;13.27;;
38089;SDS011;23904;52.322;10.232;2022-10-26T05:17:15;22.33;;;10.75;;
38089;SDS011;23904;52.322;10.232;2022-10-26T05:19:40;23.15;;;10.88;;
38089;SDS011;23904;52.322;10.232;2022-10-26T05:22:06;22.23;;;11.20;;
38089;SDS011;23904;52.322;10.232;2022-10-26T05:24:32;15.02;;;7.80;;
38089;SDS011;23904;52.322;10.232;2022-10-26T05:26:58;18.30;;;8.38;;
38089;SDS011;23904;52.322;10.232;2022-10-26T05:29:24;11.68;;;6.82;;
38089;SDS011;23904;52.322;10.232;2022-10-26T05:31:50;15.20;;;7.15;;
38089;SDS011;23904;52.322;10.232;2022-10-26T05:34:16;18.45;;;7.93;;
38089;SDS011;23904;52.322;10.232;2022-10-26T05:36:41;18.10;;;9.25;;
38089;SDS011;23904;52.322;10.232;2022-10-26T05:39:07;17.30;;;9.20;;
38089;SDS011;23904;52.322;10.232;2022-10-26T05:41:32;24.50;;;13.20;;
38089;SDS011;23904;52.322;10.232;2022-10-26T05:43:58;33.63;;;16.48;;
38089;SDS011;23904;52.322;10.232;2022-10-26T05:46:24;24.48;;;13.50;;
38089;SDS011;23904;52.322;10.232;2022-10-26T05:48:49;15.15;;;9.55;;
38089;SDS011;23904;52.322;10.232;2022-10-26T05:51:15;15.00;;;8.20;;
38089;SDS011;23904;52.322;10.232;2022-10-26T05:53:41;19.05;;;9.32;;
38089;SDS011;23904;52.322;10.232;2022-10-26T05:56:15;19.02;;;9.70;;
38089;SDS011;23904;52.322;10.232;2022-10-26T05:58:48;15.70;;;7.55;;
38089;SDS011;23904;52.322;10.232;2022-10-26T06:04:06;12.63;;;6.88;;
38089;SDS011;23904;52.322;10.232;2022-10-26T06:06:45;13.18;;;7.10;;
38089;SDS011;23904;52.322;10.232;2022-10-26T06:09:17;13.02;;;7.35;;
38089;SDS011;23904;52.322;10.232;2022-10-26T06:11:43;13.57;;;7.50;;
38089;SDS011;23904;52.322;10.232;2022-10-26T06:14:09;11.73;;;7.35;;
38089;SDS011;23904;52.322;10.232;2022-10-26T06:22:18;15.32;;;7.95;;
38089;SDS011;23904;52.322;10.232;2022-10-26T06:27:55;16.15;;;8.98;;
38089;SDS011;23904;52.322;10.232;2022-10-26T06:30:52;16.83;;;7.35;;
38089;SDS011;23904;52.322;10.232;2022-10-26T06:33:18;13.40;;;7.03;;
38089;SDS011;23904;52.322;10.232;2022-10-26T06:38:31;16.00;;;7.45;;
38089;SDS011;23904;52.322;10.232;2022-10-26T06:40:59;10.32;;;7.18;;
38089;SDS011;23904;52.322;10.232;2022-10-26T06:43:26;17.08;;;9.80;;
38089;SDS011;23904;52.322;10.232;2022-10-26T06:45:59;18.63;;;9.85;;
38089;SDS011;23904;52.322;10.232;2022-10-26T06:52:00;14.27;;;8.75;;
38089;SDS011;23904;52.322;10.232;2022-10-26T06:57:18;20.58;;;8.88;;
38089;SDS011;23904;52.322;10.232;2022-10-26T07:02:17;15.45;;;7.55;;
38089;SDS011;23904;52.322;10.232;2022-10-26T07:04:43;15.57;;;7.25;;
38089;SDS011;23904;52.322;10.232;2022-10-26T07:07:19;17.50;;;8.27;;
38089;SDS011;23904;52.322;10.232;2022-10-26T07:09:47;12.77;;;7.57;;
38089;SDS011;23904;52.322;10.232;2022-10-26T07:12:13;18.08;;;9.48;;
38089;SDS011;23904;52.322;10.232;2022-10-26T07:14:39;15.07;;;8.50;;
38089;SDS011;23904;52.322;10.232;2022-10-26T07:17:05;15.50;;;8.93;;
38089;SDS011;23904;52.322;10.232;2022-10-26T07:19:31;19.83;;;7.88;;
38089;SDS011;23904;52.322;10.232;2022-10-26T07:21:58;19.40;;;10.15;;
38089;SDS011;23904;52.322;10.232;2022-10-26T07:24:24;23.92;;;10.75;;
38089;SDS011;23904;52.322;10.232;2022-10-26T07:26:52;19.35;;;9.10;;
38089;SDS011;23904;52.322;10.232;2022-10-26T07:29:19;19.48;;;9.57;;
38089;SDS011;23904;52.322;10.232;2022-10-26T07:31:46;22.90;;;10.20;;
38089;SDS011;23904;52.322;10.232;2022-10-26T07:34:11;25.48;;;9.52;;
38089;SDS011;23904;52.322;10.232;2022-10-26T07:36:37;19.17;;;9.07;;
38089;SDS011;23904;52.322;10.232;2022-10-26T07:39:03;15.90;;;8.35;;
38089;SDS011;23904;52.322;10.232;2022-10-26T07:41:30;15.70;;;7.78;;
38089;SDS011;23904;52.322;10.232;2022-10-26T07:43:56;20.33;;;8.65;;
38089;SDS011;23904;52.322;10.232;2022-10-26T07:46:22;15.85;;;8.25;;
38089;SDS011;23904;52.322;10.232;2022-10-26T07:48:47;19.10;;;7.95;;
38089;SDS011;23904;52.322;10.232;2022-10-26T07:51:13;20.85;;;9.07;;
38089;SDS011;23904;52.322;10.232;2022-10-26T07:53:39;13.98;;;7.43;;
38089;SDS011;23904;52.322;10.232;2022-10-26T07:56:05;14.85;;;7.70;;
38089;SDS011;23904;52.322;10.232;2022-10-26T07:58:31;12.93;;;5.88;;
38089;SDS011;23904;52.322;10.232;2022-10-26T08:01:03;9.88;;;5.25;;
38089;SDS011;23904;52.322;10.232;2022-10-26T08:03:32;11.82;;;5.72;;
38089;SDS011;23904;52.322;10.232;2022-10-26T08:05:57;13.63;;;5.40;;
38089;SDS011;23904;52.322;10.232;2022-10-26T08:08:23;17.27;;;6.10;;
38089;SDS011;23904;52.322;10.232;2022-10-26T08:10:49;8.68;;;4.95;;
38089;SDS011;23904;52.322;10.232;2022-10-26T08:13:16;11.02;;;5.00;;
38089;SDS011;23904;52.322;10.232;2022-10-26T08:15:41;16.00;;;5.38;;
38089;SDS011;23904;52.322;10.232;2022-10-26T08:18:07;9.75;;;5.60;;
38089;SDS011;23904;52.322;10.232;2022-10-26T08:20:33;11.90;;;5.75;;
38089;SDS011;23904;52.322;10.232;2022-10-26T08:22:59;12.35;;;5.85;;
38089;SDS011;23904;52.322;10.232;2022-10-26T08:25:25;12.27;;;5.43;;
38089;SDS011;23904;52.322;10.232;2022-10-26T08:27:51;10.68;;;5.57;;
38089;SDS011;23904;52.322;10.232;2022-10-26T08:30:17;12.90;;;4.90;;
38089;SDS011;23904;52.322;10.232;2022-10-26T08:32:42;13.70;;;4.00;;
38089;SDS011;23904;52.322;10.232;2022-10-26T08:35:08;8.77;;;3.40;;
38089;SDS011;23904;52.322;10.232;2022-10-26T08:37:37;11.13;;;3.90;;
38089;SDS011;23904;52.322;10.232;2022-10-26T08:40:03;10.25;;;4.43;;
38089;SDS011;23904;52.322;10.232;2022-10-26T08:42:31;8.93;;;3.95;;
38089;SDS011;23904;52.322;10.232;2022-10-26T08:45:06;11.57;;;3.53;;
38089;SDS011;23904;52.322;10.232;2022-10-26T08:47:45;8.68;;;3.97;;
38089;SDS011;23904;52.322;10.232;2022-10-26T08:50:25;10.10;;;3.38;;
38089;SDS011;23904;52.322;10.232;2022-10-26T08:53:35;13.60;;;3.92;;
38089;SDS011;23904;52.322;10.232;2022-10-26T08:56:14;13.65;;;4.13;;
38089;SDS011;23904;52.322;10.232;2022-10-26T08:58:45;10.30;;;3.65;;
38089;SDS011;23904;52.322;10.232;2022-10-26T09:01:23;9.02;;;4.05;;
38089;SDS011;23904;52.322;10.232;2022-10-26T09:03:49;13.60;;;4.53;;
38089;SDS011;23904;52.322;10.232;2022-10-26T09:06:18;10.95;;;4.18;;
38089;SDS011;23904;52.322;10.232;2022-10-26T09:11:56;15.43;;;3.42;;
38089;SDS011;23904;52.322;10.232;2022-10-26T09:14:42;10.82;;;3.80;;
38089;SDS011;23904;52.322;10.232;2022-10-26T09:20:53;9.80;;;3.63;;
38089;SDS011;23904;52.322;10.232;2022-10-26T09:23:39;7.75;;;2.97;;
38089;SDS011;23904;52.322;10.232;2022-10-26T09:26:30;21.80;;;3.50;;
38089;SDS011;23904;52.322;10.232;2022-10-26T09:29:04;11.88;;;3.40;;
38089;SDS011;23904;52.322;10.232;2022-10-26T09:31:38;9.63;;;4.50;;
38089;SDS011;23904;52.322;10.232;2022-10-26T09:34:11;12.32;;;4.68;;
38089;SDS011;23904;52.322;10.232;2022-10-26T09:36:53;7.65;;;3.33;;
38089;SDS011;23904;52.322;10.232;2022-10-26T09:39:22;9.63;;;3.58;;
38089;SDS011;23904;52.322;10.232;2022-10-26T09:42:06;11.77;;;3.90;;
38089;SDS011;23904;52.322;10.232;2022-10-26T09:47:40;9.93;;;3.08;;
38089;SDS011;23904;52.322;10.232;2022-10-26T09:52:47;8.95;;;3.65;;
38089;SDS011;23904;52.322;10.232;2022-10-26T09:55:13;7.07;;;3.22;;
38089;SDS011;23904;52.322;10.232;2022-10-26T09:57:40;9.75;;;3.85;;
38089;SDS011;23904;52.322;10.232;2022-10-26T10:00:16;12.25;;;4.47;;
38089;SDS011;23904;52.322;10.232;2022-10-26T10:02:45;7.18;;;3.47;;
38089;SDS011;23904;52.322;10.232;2022-10-26T10:13:32;12.90;;;3.90;;
38089;SDS011;23904;52.322;10.232;2022-10-26T10:18:37;15.15;;;4.43;;
38089;SDS011;23904;52.322;10.232;2022-10-26T10:21:05;11.90;;;4.40;;
38089;SDS011;23904;52.322;10.232;2022-10-26T10:23:45;12.65;;;5.32;;
38089;SDS011;23904;52.322;10.232;2022-10-26T10:26:18;11.00;;;4.75;;
38089;SDS011;23904;52.322;10.232;2022-10-26T10:28:54;11.20;;;4.90;;
38089;SDS011;23904;52.322;10.232;2022-10-26T10:31:29;13.13;;;5.00;;
38089;SDS011;23904;52.322;10.232;2022-10-26T10:33:57;7.18;;;2.90;;
38089;SDS011;23904;52.322;10.232;2022-10-26T10:36:24;11.05;;;3.45;;
38089;SDS011;23904;52.322;10.232;2022-10-26T10:38:54;7.72;;;2.85;;
38089;SDS011;23904;52.322;10.232;2022-10-26T10:41:24;10.82;;;2.85;;
38089;SDS011;23904;52.322;10.232;2022-10-26T10:43:52;13.82;;;2.40;;
38089;SDS011;23904;52.322;10.232;2022-10-26T10:46:31;9.23;;;2.63;;
38089;SDS011;23904;52.322;10.232;2022-10-26T10:49:02;7.78;;;2.83;;
38089;SDS011;23904;52.322;10.232;2022-10-26T10:51:39;10.73;;;2.40;;
38089;SDS011;23904;52.322;10.232;2022-10-26T11:00:03;6.68;;;2.58;;
38089;SDS011;23904;52.322;10.232;2022-10-26T11:08:16;10.77;;;3.05;;
38089;SDS011;23904;52.322;10.232;2022-10-26T11:11:05;7.32;;;2.55;;
38089;SDS011;23904;52.322;10.232;2022-10-26T11:16:29;8.93;;;3.03;;
38089;SDS011;23904;52.322;10.232;2022-10-26T11:19:01;12.50;;;2.80;;
38089;SDS011;23904;52.322;10.232;2022-10-26T11:21:30;9.15;;;2.78;;
38089;SDS011;23904;52.322;10.232;2022-10-26T11:26:40;4.22;;;1.85;;
38089;SDS011;23904;52.322;10.232;2022-10-26T11:32:39;7.75;;;2.20;;
38089;SDS011;23904;52.322;10.232;2022-10-26T11:35:31;9.70;;;2.30;;
38089;SDS011;23904;52.322;10.232;2022-10-26T11:38:12;8.23;;;1.75;;
38089;SDS011;23904;52.322;10.232;2022-10-26T11:41:24;7.25;;;1.77;;
38089;SDS011;23904;52.322;10.232;2022-10-26T11:44:04;7.25;;;1.80;;
38089;SDS011;23904;52.322;10.232;2022-10-26T11:47:06;6.05;;;1.60;;
38089;SDS011;23904;52.322;10.232;2022-10-26T11:49:47;8.35;;;2.05;;
38089;SDS011;23904;52.322;10.232;2022-10-26T11:52:31;3.90;;;1.42;;
38089;SDS011;23904;52.322;10.232;2022-10-26T11:55:09;7.22;;;2.00;;
38089;SDS011;23904;52.322;10.232;2022-10-26T11:57:36;6.03;;;1.73;;
38089;SDS011;23904;52.322;10.232;2022-10-26T12:00:07;10.50;;;1.85;;
38089;SDS011;23904;52.322;10.232;2022-10-26T12:02:41;8.05;;;1.60;;
38089;SDS011;23904;52.322;10.232;2022-10-26T12:07:40;10.38;;;1.60;;
38089;SDS011;23904;52.322;10.232;2022-10-26T12:10:34;7.03;;;1.30;;
38089;SDS011;23904;52.322;10.232;2022-10-26T12:13:25;4.15;;;1.30;;
38089;SDS011;23904;52.322;10.232;2022-10-26T12:18:31;6.68;;;1.75;;
38089;SDS011;23904;52.322;10.232;2022-10-26T12:21:08;5.43;;;1.80;;
38089;SDS011;23904;52.322;10.232;2022-10-26T12:23:51;7.40;;;1.55;;
38089;SDS011;23904;52.322;10.232;2022-10-26T12:28:47;6.70;;;1.60;;
38089;SDS011;23904;52.322;10.232;2022-10-26T12:31:49;5.25;;;1.60;;
38089;SDS011;23904;52.322;10.232;2022-10-26T12:34:21;8.18;;;1.73;;
38089;SDS011;23904;52.322;10.232;2022-10-26T12:39:35;6.80;;;1.40;;
38089;SDS011;23904;52.322;10.232;2022-10-26T12:52:37;6.53;;;2.00;;
38089;SDS011;23904;52.322;10.232;2022-10-26T12:55:37;5.28;;;1.42;;
38089;SDS011;23904;52.322;10.232;2022-10-26T12:58:16;6.07;;;1.40;;
38089;SDS011;23904;52.322;10.232;2022-10-26T13:06:58;6.63;;;2.05;;
38089;SDS011;23904;52.322;10.232;2022-10-26T13:09:49;4.13;;;1.90;;
38089;SDS011;23904;52.322;10.232;2022-10-26T13:12:24;3.83;;;1.70;;
38089;SDS011;23904;52.322;10.232;2022-10-26T13:14:54;5.85;;;1.95;;
38089;SDS011;23904;52.322;10.232;2022-10-26T13:17:41;6.97;;;1.85;;
38089;SDS011;23904;52.322;10.232;2022-10-26T13:20:17;4.68;;;1.75;;
38089;SDS011;23904;52.322;10.232;2022-10-26T13:22:44;6.28;;;2.72;;
38089;SDS011;23904;52.322;10.232;2022-10-26T13:25:22;4.85;;;1.77;;
38089;SDS011;23904;52.322;10.232;2022-10-26T13:28:01;5.95;;;1.65;;
38089;SDS011;23904;52.322;10.232;2022-10-26T13:30:51;3.95;;;1.60;;
38089;SDS011;23904;52.322;10.232;2022-10-26T13:33:28;5.55;;;2.05;;
38089;SDS011;23904;52.322;10.232;2022-10-26T13:36:01;7.13;;;2.22;;
38089;SDS011;23904;52.322;10.232;2022-10-26T13:38:44;9.77;;;3.28;;
38089;SDS011;23904;52.322;10.232;2022-10-26T13:41:15;4.35;;;2.20;;
38089;SDS011;23904;52.322;10.232;2022-10-26T13:43:50;10.45;;;2.53;;
38089;SDS011;23904;52.322;10.232;2022-10-26T13:46:21;11.70;;;2.88;;
38089;SDS011;23904;52.322;10.232;2022-10-26T13:48:52;7.65;;;2.03;;
38089;SDS011;23904;52.322;10.232;2022-10-26T13:51:25;7.15;;;1.70;;
38089;SDS011;23904;52.322;10.232;2022-10-26T13:59:32;4.18;;;1.92;;
38089;SDS011;23904;52.322;10.232;2022-10-26T14:02:06;7.85;;;1.80;;
38089;SDS011;23904;52.322;10.232;2022-10-26T14:04:57;6.15;;;1.90;;
38089;SDS011;23904;52.322;10.232;2022-10-26T14:07:29;4.40;;;1.60;;
38089;SDS011;23904;52.322;10.232;2022-10-26T14:10:31;8.52;;;2.42;;
38089;SDS011;23904;52.322;10.232;2022-10-26T14:13:06;5.65;;;2.35;;
38089;SDS011;23904;52.322;10.232;2022-10-26T14:15:34;10.55;;;2.50;;
38089;SDS011;23904;52.322;10.232;2022-10-26T14:18:00;8.88;;;2.42;;
38089;SDS011;23904;52.322;10.232;2022-10-26T14:20:28;7.10;;;2.13;;
38089;SDS011;23904;52.322;10.232;2022-10-26T14:22:55;7.47;;;1.30;;
38089;SDS011;23904;52.322;10.232;2022-10-26T14:25:22;7.88;;;1.75;;
38089;SDS011;23904;52.322;10.232;2022-10-26T14:27:51;6.25;;;1.50;;
38089;SDS011;23904;52.322;10.232;2022-10-26T14:32:48;3.45;;;1.60;;
38089;SDS011;23904;52.322;10.232;2022-10-26T14:35:15;6.97;;;2.22;;
38089;SDS011;23904;52.322;10.232;2022-10-26T14:37:57;5.15;;;1.60;;
38089;SDS011;23904;52.322;10.232;2022-10-26T14:40:27;7.70;;;1.90;;
38089;SDS011;23904;52.322;10.232;2022-10-26T14:42:58;9.45;;;2.92;;
38089;SDS011;23904;52.322;10.232;2022-10-26T14:47:58;6.85;;;1.63;;
38089;SDS011;23904;52.322;10.232;2022-10-26T14:50:25;3.97;;;1.67;;
38089;SDS011;23904;52.322;10.232;2022-10-26T14:52:55;10.48;;;2.30;;
38089;SDS011;23904;52.322;10.232;2022-10-26T14:55:25;4.35;;;1.67;;
38089;SDS011;23904;52.322;10.232;2022-10-26T14:57:52;6.75;;;1.92;;
38089;SDS011;23904;52.322;10.232;2022-10-26T15:00:32;9.90;;;2.20;;
38089;SDS011;23904;52.322;10.232;2022-10-26T15:02:58;4.75;;;1.45;;
38089;SDS011;23904;52.322;10.232;2022-10-26T15:05:32;6.82;;;1.70;;
38089;SDS011;23904;52.322;10.232;2022-10-26T15:07:59;7.53;;;1.95;;
38089;SDS011;23904;52.322;10.232;2022-10-26T15:13:19;9.30;;;2.05;;
38089;SDS011;23904;52.322;10.232;2022-10-26T15:15:53;5.72;;;2.28;;
38089;SDS011;23904;52.322;10.232;2022-10-26T15:18:22;7.28;;;2.38;;
38089;SDS011;23904;52.322;10.232;2022-10-26T15:20:52;8.93;;;2.72;;
38089;SDS011;23904;52.322;10.232;2022-10-26T15:23:20;7.65;;;2.45;;
38089;SDS011;23904;52.322;10.232;2022-10-26T15:25:58;9.20;;;3.05;;
38089;SDS011;23904;52.322;10.232;2022-10-26T15:28:30;5.13;;;2.35;;
38089;SDS011;23904;52.322;10.232;2022-10-26T15:33:32;11.77;;;3.78;;
38089;SDS011;23904;52.322;10.232;2022-10-26T15:38:47;7.88;;;2.67;;
38089;SDS011;23904;52.322;10.232;2022-10-26T15:43:49;7.82;;;2.72;;
38089;SDS011;23904;52.322;10.232;2022-10-26T15:46:28;7.07;;;2.10;;
38089;SDS011;23904;52.322;10.232;2022-10-26T15:48:57;6.93;;;3.03;;
38089;SDS011;23904;52.322;10.232;2022-10-26T15:51:26;12.15;;;2.72;;
38089;SDS011;23904;52.322;10.232;2022-10-26T15:53:54;5.97;;;2.10;;
38089;SDS011;23904;52.322;10.232;2022-10-26T15:56:22;6.25;;;3.00;;
38089;SDS011;23904;52.322;10.232;2022-10-26T15:58:50;9.38;;;2.28;;
38089;SDS011;23904;52.322;10.232;2022-10-26T16:01:19;5.80;;;2.28;;
38089;SDS011;23904;52.322;10.232;2022-10-26T16:03:47;3.97;;;2.08;;
38089;SDS011;23904;52.322;10.232;2022-10-26T16:06:15;7.22;;;2.92;;
38089;SDS011;23904;52.322;10.232;2022-10-26T16:08:48;6.45;;;3.03;;
38089;SDS011;23904;52.322;10.232;2022-10-26T16:11:16;5.85;;;2.55;;
38089;SDS011;23904;52.322;10.232;2022-10-26T16:13:42;6.93;;;2.72;;
38089;SDS011;23904;52.322;10.232;2022-10-26T16:16:11;6.13;;;2.67;;
38089;SDS011;23904;52.322;10.232;2022-10-26T16:18:39;7.97;;;2.45;;
38089;SDS011;23904;52.322;10.232;2022-10-26T16:21:05;5.88;;;2.85;;
38089;SDS011;23904;52.322;10.232;2022-10-26T16:23:30;8.93;;;3.25;;
38089;SDS011;23904;52.322;10.232;2022-10-26T16:25:56;4.88;;;2.50;;
38089;SDS011;23904;52.322;10.232;2022-10-26T16:28:22;16.95;;;3.00;;
38089;SDS011;23904;52.322;10.232;2022-10-26T16:30:47;4.78;;;2.30;;
38089;SDS011;23904;52.322;10.232;2022-10-26T16:33:13;6.47;;;2.05;;
38089;SDS011;23904;52.322;10.232;2022-10-26T16:35:39;5.20;;;2.40;;
38089;SDS011;23904;52.322;10.232;2022-10-26T16:38:04;12.88;;;2.92;;
38089;SDS011;23904;52.322;10.232;2022-10-26T16:40:30;5.80;;;2.38;;
38089;SDS011;23904;52.322;10.232;2022-10-26T16:42:56;9.27;;;2.70;;
38089;SDS011;23904;52.322;10.232;2022-10-26T16:45:22;6.88;;;2.45;;
38089;SDS011;23904;52.322;10.232;2022-10-26T16:47:47;7.90;;;2.33;;
38089;SDS011;23904;52.322;10.232;2022-10-26T16:50:13;9.38;;;3.83;;
38089;SDS011;23904;52.322;10.232;2022-10-26T16:52:38;8.38;;;3.75;;
38089;SDS011;23904;52.322;10.232;2022-10-26T16:55:05;11.18;;;4.50;;
38089;SDS011;23904;52.322;10.232;2022-10-26T16:57:32;9.30;;;4.35;;
38089;SDS011;23904;52.322;10.232;2022-10-26T17:00:00;10.55;;;5.05;;
38089;SDS011;23904;52.322;10.232;2022-10-26T17:02:26;9.18;;;3.75;;
38089;SDS011;23904;52.322;10.232;2022-10-26T17:04:51;10.18;;;4.07;;
38089;SDS011;23904;52.322;10.232;2022-10-26T17:07:17;5.57;;;3.75;;
38089;SDS011;23904;52.322;10.232;2022-10-26T17:09:43;9.68;;;4.40;;
38089;SDS011;23904;52.322;10.232;2022-10-26T17:12:08;8.48;;;4.40;;
38089;SDS011;23904;52.322;10.232;2022-10-26T17:14:35;11.30;;;4.50;;